createdAt,value
2018-05-10T00:00:34.910Z,48.36
2018-05-10T00:03:01.610Z,48.13
2018-05-10T00:05:28.778Z,48.09
2018-05-10T00:07:55.289Z,47.94
2018-05-10T00:10:21.688Z,47.12
2018-05-10T00:12:48.079Z,47.11
2018-05-10T00:15:14.910Z,46.90
2018-05-10T00:17:41.336Z,47.08
2018-05-10T00:20:07.894Z,47.64
2018-05-10T00:22:34.618Z,48.13
2018-05-10T00:25:01.047Z,47.87
2018-05-10T00:27:28.516Z,47.69
2018-05-10T00:29:54.926Z,48.11
2018-05-10T00:32:22.398Z,48.75
2018-05-10T00:34:48.854Z,49.28
2018-05-10T00:37:15.241Z,49.97
2018-05-10T00:39:42.344Z,50.24
2018-05-10T00:42:08.830Z,50.06
2018-05-10T00:44:36.007Z,50.41
2018-05-10T00:47:03.065Z,50.26
2018-05-10T00:49:29.782Z,50.06
2018-05-10T00:51:56.214Z,50.03
2018-05-10T00:54:42.106Z,49.54
2018-05-10T00:57:08.546Z,49.42
2018-05-10T00:59:35.036Z,50.11
2018-05-10T01:02:01.585Z,50.39
2018-05-10T01:04:27.963Z,50.59
2018-05-10T01:06:54.414Z,51.35
2018-05-10T01:09:20.868Z,54.32
2018-05-10T01:11:47.250Z,55.08
2018-05-10T01:14:13.728Z,55.16
2018-05-10T01:16:40.142Z,56.31
2018-05-10T01:19:06.652Z,59.17
2018-05-10T01:21:33.074Z,62.10
2018-05-10T01:23:59.499Z,60.22
2018-05-10T01:26:26.674Z,58.19
2018-05-10T01:28:53.068Z,58.86
2018-05-10T01:31:20.211Z,56.71
2018-05-10T01:33:46.653Z,53.70
2018-05-10T01:36:15.752Z,53.60
2018-05-10T01:38:42.962Z,53.30
2018-05-10T01:41:09.394Z,53.77
2018-05-10T01:43:35.800Z,53.12
2018-05-10T01:46:02.266Z,53.49
2018-05-10T01:48:28.730Z,54.84
2018-05-10T01:50:55.927Z,54.32
2018-05-10T01:53:22.334Z,54.22
2018-05-10T01:55:48.801Z,53.62
2018-05-10T01:58:15.275Z,53.49
2018-05-10T02:00:41.699Z,53.41
2018-05-10T02:03:08.763Z,53.49
2018-05-10T02:05:35.516Z,53.27
2018-05-10T02:08:02.665Z,53.46
2018-05-10T02:10:29.081Z,53.58
2018-05-10T02:12:56.211Z,53.74
2018-05-10T02:15:23.026Z,53.06
2018-05-10T02:17:49.736Z,53.15
2018-05-10T02:20:16.300Z,53.60
2018-05-10T02:22:43.485Z,53.82
2018-05-10T02:25:09.884Z,54.17
2018-05-10T02:27:36.343Z,53.91
2018-05-10T02:30:02.906Z,54.12
2018-05-10T02:32:30.078Z,55.14
2018-05-10T02:34:56.593Z,55.12
2018-05-10T02:37:23.758Z,54.82
2018-05-10T02:39:50.398Z,54.50
2018-05-10T02:42:16.834Z,53.66
2018-05-10T02:44:43.508Z,52.73
2018-05-10T02:47:09.980Z,52.11
2018-05-10T02:49:37.208Z,52.20
2018-05-10T02:52:03.738Z,52.17
2018-05-10T02:54:31.035Z,51.69
2018-05-10T02:56:57.486Z,51.21
2018-05-10T02:59:23.960Z,51.41
2018-05-10T03:01:50.413Z,51.02
2018-05-10T03:04:17.582Z,51.52
2018-05-10T03:06:45.151Z,51.81
2018-05-10T03:09:11.650Z,51.96
2018-05-10T03:11:38.051Z,51.96
2018-05-10T03:14:05.854Z,51.93
2018-05-10T03:16:33.020Z,52.13
2018-05-10T03:19:00.270Z,52.32
2018-05-10T03:21:27.422Z,52.86
2018-05-10T03:23:54.620Z,53.27
2018-05-10T03:26:21.004Z,53.06
2018-05-10T03:28:48.478Z,52.97
2018-05-10T03:31:14.985Z,53.39
2018-05-10T03:33:42.215Z,53.27
2018-05-10T03:36:08.826Z,53.08
2018-05-10T03:38:35.530Z,53.27
2018-05-10T03:41:01.997Z,53.19
2018-05-10T03:43:28.461Z,53.70
2018-05-10T03:45:54.901Z,54.14
2018-05-10T03:48:21.411Z,54.25
2018-05-10T03:50:49.989Z,54.31
2018-05-10T03:53:16.511Z,53.94
2018-05-10T03:55:43.056Z,53.69
2018-05-10T03:58:09.500Z,53.70
2018-05-10T04:00:36.465Z,53.57
2018-05-10T04:06:49.383Z,52.62
2018-05-10T04:09:34.254Z,53.18
2018-05-10T04:12:00.679Z,53.11
2018-05-10T04:14:27.054Z,52.56
2018-05-10T04:16:54.205Z,52.80
2018-05-10T04:19:21.495Z,53.33
2018-05-10T04:21:47.976Z,52.56
2018-05-10T04:24:14.441Z,52.23
2018-05-10T04:26:40.884Z,51.93
2018-05-10T04:29:07.315Z,51.83
2018-05-10T04:31:33.721Z,51.66
2018-05-10T04:34:00.161Z,51.68
2018-05-10T04:36:27.330Z,51.81
2018-05-10T04:38:53.733Z,50.40
2018-05-10T04:41:20.193Z,50.93
2018-05-10T04:43:47.354Z,50.47
2018-05-10T04:46:13.869Z,49.36
2018-05-10T04:48:41.006Z,48.83
2018-05-10T04:51:09.173Z,48.07
2018-05-10T04:53:35.548Z,47.58
2018-05-10T04:56:02.006Z,47.56
2018-05-10T04:58:28.418Z,47.47
2018-05-10T05:00:54.810Z,47.51
2018-05-10T05:03:22.702Z,48.71
2018-05-10T05:05:49.817Z,48.04
2018-05-10T05:08:16.266Z,48.37
2018-05-10T05:10:43.414Z,48.16
2018-05-10T05:13:10.608Z,47.92
2018-05-10T05:15:36.996Z,48.67
2018-05-10T05:18:04.178Z,48.84
2018-05-10T05:20:30.601Z,48.30
2018-05-10T05:22:57.024Z,48.35
2018-05-10T05:25:23.451Z,47.59
2018-05-10T05:27:50.601Z,47.94
2018-05-10T05:30:17.791Z,47.10
2018-05-10T05:32:44.257Z,46.50
2018-05-10T05:35:10.668Z,45.68
2018-05-10T05:37:37.365Z,46.03
2018-05-10T05:40:04.514Z,45.79
2018-05-10T05:42:31.045Z,45.87
2018-05-10T05:44:58.246Z,45.44
2018-05-10T05:47:24.860Z,45.67
2018-05-10T05:49:51.594Z,45.14
2018-05-10T05:52:18.214Z,45.39
2018-05-10T05:54:45.555Z,45.78
2018-05-10T05:57:12.705Z,45.96
2018-05-10T05:59:39.862Z,46.01
2018-05-10T06:02:07.105Z,46.25
2018-05-10T06:04:34.279Z,46.86
2018-05-10T06:07:00.763Z,46.18
2018-05-10T06:09:27.280Z,45.85
2018-05-10T06:11:53.754Z,46.45
2018-05-10T06:14:21.236Z,47.13
2018-05-10T06:16:47.776Z,47.18
2018-05-10T06:19:14.449Z,47.11
2018-05-10T06:21:40.953Z,46.36
2018-05-10T06:24:07.466Z,47.18
2018-05-10T06:26:34.849Z,45.83
2018-05-10T06:29:01.368Z,45.67
2018-05-10T06:31:27.798Z,45.32
2018-05-10T06:33:54.251Z,45.08
2018-05-10T06:36:20.705Z,44.73
2018-05-10T06:38:47.165Z,44.56
2018-05-10T06:41:13.575Z,45.22
2018-05-10T06:43:40.101Z,45.15
2018-05-10T06:46:06.758Z,44.76
2018-05-10T06:48:33.226Z,42.15
2018-05-10T06:51:00.518Z,42.89
2018-05-10T06:53:26.915Z,41.95
2018-05-10T06:55:54.132Z,41.85
2018-05-10T06:58:20.514Z,42.03
2018-05-10T07:00:46.959Z,44.27
2018-05-10T07:03:13.536Z,44.27
2018-05-10T07:05:40.609Z,45.04
2018-05-10T07:08:10.314Z,45.91
2018-05-10T07:10:38.269Z,45.81
2018-05-10T07:13:04.841Z,46.56
2018-05-10T07:15:35.328Z,46.32
2018-05-10T07:18:01.851Z,46.48
2018-05-10T07:20:28.251Z,46.36
2018-05-10T07:22:54.708Z,47.17
2018-05-10T07:25:21.308Z,47.13
2018-05-10T07:27:47.668Z,46.73
2018-05-10T07:30:14.102Z,46.17
2018-05-10T07:32:40.504Z,46.27
2018-05-10T07:35:06.941Z,46.79
2018-05-10T07:37:33.493Z,45.87
2018-05-10T07:39:59.878Z,45.48
2018-05-10T07:42:26.335Z,44.25
2018-05-10T07:44:52.794Z,44.18
2018-05-10T07:47:19.253Z,44.88
2018-05-10T07:49:45.767Z,43.73
2018-05-10T07:52:12.853Z,46.37
2018-05-10T07:54:39.525Z,44.22
2018-05-10T07:57:05.926Z,44.67
2018-05-10T07:59:32.345Z,44.77
2018-05-10T08:01:58.867Z,44.63
2018-05-10T08:04:25.388Z,46.03
2018-05-10T08:06:52.317Z,46.58
2018-05-10T08:09:18.766Z,46.44
2018-05-10T08:11:45.296Z,46.16
2018-05-10T08:14:11.690Z,46.75
2018-05-10T08:16:39.056Z,45.25
2018-05-10T08:19:06.309Z,46.07
2018-05-10T08:21:33.901Z,46.10
2018-05-10T08:24:00.848Z,46.46
2018-05-10T08:26:27.389Z,46.10
2018-05-10T08:28:54.094Z,45.92
2018-05-10T08:31:22.313Z,46.16
2018-05-10T08:33:49.817Z,45.50
2018-05-10T08:36:17.552Z,45.75
2018-05-10T08:38:45.751Z,45.78
2018-05-10T08:41:12.962Z,47.24
2018-05-10T08:43:40.026Z,47.04
2018-05-10T08:46:07.479Z,47.22
2018-05-10T08:48:34.304Z,48.54
2018-05-10T08:51:01.221Z,47.78
2018-05-10T08:53:27.683Z,48.38
2018-05-10T08:55:54.102Z,48.41
2018-05-10T08:58:20.701Z,48.78
2018-05-10T09:00:47.881Z,49.54
2018-05-10T09:03:14.355Z,48.87
2018-05-10T09:05:40.911Z,48.79
2018-05-10T09:08:08.239Z,49.47
2018-05-10T09:10:34.901Z,50.33
2018-05-10T09:13:03.185Z,50.44
2018-05-10T09:15:30.504Z,50.40
2018-05-10T09:17:56.901Z,49.82
2018-05-10T09:20:23.748Z,49.42
2018-05-10T09:22:50.452Z,49.37
2018-05-10T09:25:16.892Z,49.87
2018-05-10T09:27:45.274Z,50.08
2018-05-10T09:30:12.758Z,49.84
2018-05-10T09:32:39.326Z,49.54
2018-05-10T09:35:06.237Z,49.30
2018-05-10T09:37:33.102Z,51.04
2018-05-10T09:39:59.562Z,51.54
2018-05-10T09:42:27.306Z,52.32
2018-05-10T09:44:54.738Z,52.46
2018-05-10T09:47:21.198Z,53.49
2018-05-10T09:49:48.222Z,53.21
2018-05-10T09:52:14.684Z,54.27
2018-05-10T09:54:41.455Z,54.33
2018-05-10T09:57:08.627Z,54.25
2018-05-10T09:59:35.250Z,54.22
2018-05-10T10:02:01.732Z,53.83
2018-05-10T10:04:28.220Z,53.75
2018-05-10T10:06:54.792Z,53.20
2018-05-10T10:09:21.251Z,51.85
2018-05-10T10:11:47.873Z,50.43
2018-05-10T10:14:14.264Z,50.50
2018-05-10T10:16:40.776Z,51.03
2018-05-10T10:19:08.137Z,46.66
2018-05-10T10:21:34.755Z,47.01
2018-05-10T10:24:02.244Z,45.30
2018-05-10T10:26:28.666Z,42.89
2018-05-10T10:28:55.971Z,42.94
2018-05-10T10:31:22.628Z,43.64
2018-05-10T10:33:49.121Z,44.15
2018-05-10T10:36:15.554Z,43.96
2018-05-10T10:38:42.028Z,44.10
2018-05-10T10:41:09.525Z,44.57
2018-05-10T10:43:36.408Z,44.94
2018-05-10T10:46:02.883Z,44.89
2018-05-10T10:48:29.622Z,43.58
2018-05-10T10:50:57.001Z,43.52
2018-05-10T10:53:23.398Z,43.80
2018-05-10T10:55:50.180Z,43.31
2018-05-10T10:58:16.681Z,42.48
2018-05-10T11:00:43.106Z,41.90
2018-05-10T11:03:10.456Z,42.68
2018-05-10T11:05:36.958Z,42.30
2018-05-10T11:08:03.590Z,42.70
2018-05-10T11:10:30.163Z,42.44
2018-05-10T11:12:57.009Z,41.76
2018-05-10T11:15:24.749Z,41.67
2018-05-10T11:17:51.405Z,43.45
2018-05-10T11:20:17.923Z,44.08
2018-05-10T11:22:44.457Z,44.96
2018-05-10T11:25:11.174Z,45.99
2018-05-10T11:27:37.664Z,46.38
2018-05-10T11:30:04.237Z,47.62
2018-05-10T11:32:31.080Z,48.14
2018-05-10T11:34:57.469Z,49.49
2018-05-10T11:37:24.124Z,50.67
2018-05-10T11:39:51.115Z,50.69
2018-05-10T11:42:17.706Z,50.76
2018-05-10T11:44:44.983Z,50.45
2018-05-10T11:47:11.745Z,51.37
2018-05-10T11:49:38.383Z,51.48
2018-05-10T11:52:05.115Z,51.02
2018-05-10T11:54:31.817Z,49.84
2018-05-10T11:56:58.962Z,49.92
2018-05-10T11:59:26.122Z,50.47
2018-05-10T12:01:53.342Z,48.99
2018-05-10T12:04:19.851Z,48.63
2018-05-10T12:06:46.505Z,48.16
2018-05-10T12:09:12.997Z,46.66
2018-05-10T12:11:39.400Z,47.44
2018-05-10T12:14:06.504Z,46.65
2018-05-10T12:16:32.954Z,45.20
2018-05-10T12:18:59.418Z,45.09
2018-05-10T12:21:26.601Z,43.20
2018-05-10T12:23:53.015Z,44.44
2018-05-10T12:26:20.188Z,45.13
2018-05-10T12:28:46.662Z,45.27
2018-05-10T12:31:13.265Z,45.33
2018-05-10T12:33:39.882Z,46.00
2018-05-10T12:36:06.414Z,44.63
2018-05-10T12:38:33.585Z,44.90
2018-05-10T12:41:00.655Z,46.32
2018-05-10T12:43:27.756Z,45.41
2018-05-10T12:45:54.985Z,46.98
2018-05-10T12:48:21.480Z,47.15
2018-05-10T12:50:48.061Z,47.36
2018-05-10T12:53:14.586Z,48.73
2018-05-10T12:55:41.057Z,49.57
2018-05-10T12:58:07.443Z,51.08
2018-05-10T13:00:34.112Z,52.43
2018-05-10T13:03:00.663Z,54.16
2018-05-10T13:05:28.029Z,53.78
2018-05-10T13:07:54.641Z,53.61
2018-05-10T13:10:21.085Z,53.77
2018-05-10T13:12:48.308Z,54.52
2018-05-10T13:15:15.933Z,54.00
2018-05-10T13:17:42.464Z,53.95
2018-05-10T13:20:09.122Z,53.41
2018-05-10T13:22:37.069Z,52.96
2018-05-10T13:25:03.597Z,53.16
2018-05-10T13:27:30.456Z,53.37
2018-05-10T13:29:56.945Z,53.49
2018-05-10T13:32:24.317Z,53.84
2018-05-10T13:34:51.377Z,56.54
2018-05-10T13:37:17.925Z,57.17
2018-05-10T13:39:44.493Z,56.85
2018-05-10T13:42:11.066Z,57.07
2018-05-10T13:44:37.722Z,57.03
2018-05-10T13:47:04.253Z,56.77
2018-05-10T13:49:30.652Z,54.82
2018-05-10T13:51:57.965Z,55.84
2018-05-10T13:54:24.439Z,54.22
2018-05-10T13:56:52.846Z,53.41
2018-05-10T13:59:19.502Z,54.54
2018-05-10T14:01:46.268Z,55.34
2018-05-10T14:04:13.209Z,56.09
2018-05-10T14:06:39.720Z,57.07
2018-05-10T14:09:06.239Z,58.60
2018-05-10T14:11:32.820Z,60.42
2018-05-10T14:14:00.235Z,60.57
2018-05-10T14:16:26.773Z,59.21
2018-05-10T14:18:54.765Z,60.99
2018-05-10T14:21:21.565Z,60.56
2018-05-10T14:23:48.774Z,61.54
2018-05-10T14:26:15.503Z,61.51
2018-05-10T14:28:42.767Z,61.90
2018-05-10T14:31:09.296Z,61.35
2018-05-10T14:33:35.719Z,61.07
2018-05-10T14:36:02.525Z,61.26
2018-05-10T14:38:29.034Z,62.25
2018-05-10T14:40:55.596Z,62.61
2018-05-10T14:43:22.209Z,61.55
2018-05-10T14:45:50.367Z,62.53
2018-05-10T14:48:17.849Z,62.88
2018-05-10T14:50:45.042Z,62.50
2018-05-10T14:53:11.487Z,62.68
2018-05-10T14:55:37.922Z,62.07
2018-05-10T14:58:04.617Z,62.12
2018-05-10T15:00:31.243Z,63.52
2018-05-10T15:02:57.733Z,68.53
2018-05-10T15:05:24.532Z,71.89
2018-05-10T15:07:51.188Z,71.78
2018-05-10T15:10:17.651Z,72.89
2018-05-10T15:12:44.077Z,74.80
2018-05-10T15:15:10.526Z,75.21
2018-05-10T15:17:37.014Z,75.42
2018-05-10T15:20:03.751Z,79.05
2018-05-10T15:22:30.334Z,77.76
2018-05-10T15:24:57.649Z,79.01
2018-05-10T15:27:25.092Z,78.98
2018-05-10T15:29:51.597Z,78.27
2018-05-10T15:32:18.931Z,78.91
2018-05-10T15:34:45.571Z,75.71
2018-05-10T15:37:12.028Z,74.22
2018-05-10T15:39:39.781Z,75.96
2018-05-10T15:42:06.946Z,73.51
2018-05-10T15:44:34.262Z,73.24
2018-05-10T15:47:00.938Z,72.53
2018-05-10T15:49:28.320Z,73.16
2018-05-10T15:51:54.732Z,72.03
2018-05-10T15:54:21.868Z,71.19
2018-05-10T15:56:49.325Z,72.61
2018-05-10T15:59:16.803Z,70.55
2018-05-10T16:01:43.237Z,70.27
2018-05-10T16:04:10.933Z,70.23
2018-05-10T16:06:37.810Z,70.92
2018-05-10T16:09:06.094Z,67.83
2018-05-10T16:11:32.710Z,68.16
2018-05-10T16:13:59.197Z,68.35
2018-05-10T16:16:26.343Z,68.99
2018-05-10T16:18:53.029Z,69.40
2018-05-10T16:21:19.519Z,67.85
2018-05-10T16:23:46.203Z,66.91
2018-05-10T16:26:13.519Z,67.21
2018-05-10T16:28:40.056Z,66.69
2018-05-10T16:31:06.507Z,65.97
2018-05-10T16:33:33.140Z,66.41
2018-05-10T16:35:59.634Z,66.11
2018-05-10T16:38:26.969Z,66.51
2018-05-10T16:40:54.559Z,66.92
2018-05-10T16:43:21.811Z,66.90
2018-05-10T16:45:49.227Z,65.94
2018-05-10T16:48:15.675Z,67.57
2018-05-10T16:50:44.141Z,66.03
2018-05-10T16:53:12.062Z,66.83
2018-05-10T16:55:39.860Z,65.96
2018-05-10T16:58:07.654Z,66.52
2018-05-10T17:00:35.226Z,68.89
2018-05-10T17:03:03.324Z,70.01
2018-05-10T17:05:30.706Z,69.57
2018-05-10T17:07:59.533Z,69.45
2018-05-10T17:10:27.670Z,70.25
2018-05-10T17:12:55.252Z,68.39
2018-05-10T17:15:22.542Z,69.92
2018-05-10T17:17:49.734Z,69.81
2018-05-10T17:20:16.694Z,68.02
2018-05-10T17:22:43.926Z,69.36
2018-05-10T17:25:10.555Z,69.20
2018-05-10T17:27:37.312Z,68.24
2018-05-10T17:30:03.786Z,68.73
2018-05-10T17:32:31.090Z,68.31
2018-05-10T17:34:57.491Z,68.84
2018-05-10T17:37:24.005Z,69.11
2018-05-10T17:39:51.485Z,68.47
2018-05-10T17:42:17.979Z,67.53
2018-05-10T17:44:44.466Z,68.37
2018-05-10T17:47:11.108Z,69.22
2018-05-10T17:49:37.770Z,68.73
2018-05-10T17:52:04.313Z,68.61
2018-05-10T17:54:31.001Z,69.06
2018-05-10T17:56:57.898Z,69.23
2018-05-10T17:59:25.102Z,68.72
2018-05-10T18:01:51.891Z,69.69
2018-05-10T18:04:18.684Z,69.53
2018-05-10T18:06:48.322Z,68.23
2018-05-10T18:09:15.924Z,69.42
2018-05-10T18:11:43.833Z,69.49
2018-05-10T18:14:10.603Z,69.80
2018-05-10T18:16:37.648Z,70.10
2018-05-10T18:19:04.419Z,70.26
2018-05-10T18:21:32.104Z,69.95
2018-05-10T18:26:31.936Z,69.08
2018-05-10T18:28:58.411Z,69.83
2018-05-10T18:31:25.956Z,70.76
2018-05-10T18:33:52.779Z,71.17
2018-05-10T18:36:19.659Z,71.76
2018-05-10T18:38:47.583Z,70.50
2018-05-10T18:41:14.501Z,70.84
2018-05-10T18:43:41.910Z,69.53
2018-05-10T18:46:08.354Z,69.94
2018-05-10T18:48:35.026Z,71.50
2018-05-10T18:51:02.053Z,70.72
2018-05-10T18:53:29.215Z,69.38
2018-05-10T18:55:56.554Z,68.89
2018-05-10T18:58:23.078Z,70.26
2018-05-10T19:00:49.590Z,69.70
2018-05-10T19:03:16.103Z,69.14
2018-05-10T19:05:44.719Z,70.02
2018-05-10T19:08:11.235Z,69.85
2018-05-10T19:10:38.147Z,71.51
2018-05-10T19:13:04.674Z,70.41
2018-05-10T19:15:32.127Z,70.96
2018-05-10T19:17:58.719Z,70.09
2018-05-10T19:20:25.487Z,69.85
2018-05-10T19:22:52.107Z,70.00
2018-05-10T19:25:18.664Z,69.86
2018-05-10T19:27:45.750Z,70.18
2018-05-10T19:30:14.175Z,70.32
2018-05-10T19:32:41.128Z,70.01
2018-05-10T19:35:07.594Z,69.91
2018-05-10T19:37:34.037Z,69.61
2018-05-10T19:40:01.517Z,69.93
2018-05-10T19:42:27.989Z,70.19
2018-05-10T19:44:54.429Z,69.03
2018-05-10T19:47:20.885Z,68.74
2018-05-10T19:49:48.249Z,69.59
2018-05-10T19:52:15.557Z,70.13
2018-05-10T19:54:42.015Z,68.87
2018-05-10T19:57:08.525Z,67.91
2018-05-10T19:59:35.082Z,69.31
2018-05-10T20:02:01.477Z,68.71
2018-05-10T20:04:28.020Z,68.73
2018-05-10T20:06:54.975Z,68.70
2018-05-10T20:09:21.338Z,69.34
2018-05-10T20:11:47.937Z,67.81
2018-05-10T20:14:14.901Z,68.66
2018-05-10T20:16:41.406Z,67.56
2018-05-10T20:19:07.879Z,67.94
2018-05-10T20:21:36.344Z,68.52
2018-05-10T20:24:03.552Z,68.30
2018-05-10T20:26:32.557Z,68.82
2018-05-10T20:29:01.758Z,68.75
2018-05-10T20:31:28.217Z,67.04
2018-05-10T20:33:54.710Z,65.84
2018-05-10T20:36:21.972Z,65.87
2018-05-10T20:38:48.546Z,66.99
2018-05-10T20:41:14.999Z,66.85
2018-05-10T20:43:41.527Z,67.36
2018-05-10T20:46:08.050Z,67.23
2018-05-10T20:48:34.525Z,66.12
2018-05-10T20:51:01.894Z,66.59
2018-05-10T20:53:28.464Z,66.53
2018-05-10T20:55:54.946Z,65.69
2018-05-10T20:58:22.078Z,66.34
2018-05-10T21:00:49.486Z,66.59
2018-05-10T21:03:15.963Z,66.60
2018-05-10T21:05:42.437Z,66.57
2018-05-10T21:08:08.850Z,67.31
2018-05-10T21:10:36.515Z,67.48
2018-05-10T21:13:02.970Z,67.23
2018-05-10T21:15:29.502Z,67.38
2018-05-10T21:17:55.903Z,67.36
2018-05-10T21:20:22.391Z,66.43
2018-05-10T21:22:48.837Z,66.37
2018-05-10T21:25:15.404Z,66.09
2018-05-10T21:27:42.553Z,65.72
2018-05-10T21:30:09.006Z,66.24
2018-05-10T21:32:35.518Z,65.52
2018-05-10T21:35:03.777Z,65.72
2018-05-10T21:37:30.431Z,65.61
2018-05-10T21:39:56.871Z,65.05
2018-05-10T21:42:24.906Z,65.66
2018-05-10T21:44:51.596Z,65.48
2018-05-10T21:47:18.335Z,65.44
2018-05-10T21:50:02.269Z,65.35
2018-05-10T21:52:29.505Z,66.08
2018-05-10T21:54:55.959Z,65.41
2018-05-10T21:57:23.434Z,66.42
2018-05-10T21:59:49.902Z,66.14
2018-05-10T22:02:19.552Z,65.93
2018-05-10T22:04:46.739Z,65.89
2018-05-10T22:07:13.226Z,66.06
2018-05-10T22:09:39.858Z,66.48
2018-05-10T22:12:06.298Z,66.38
2018-05-10T22:14:33.069Z,66.57
2018-05-10T22:16:59.509Z,66.17
2018-05-10T22:19:26.202Z,66.76
2018-05-10T22:21:53.467Z,66.82
2018-05-10T22:24:21.383Z,66.33
2018-05-10T22:26:47.839Z,66.56
2018-05-10T22:29:15.458Z,67.40
2018-05-10T22:31:41.967Z,67.38
2018-05-10T22:34:09.374Z,67.45
2018-05-10T22:36:35.849Z,67.11
2018-05-10T22:39:17.359Z,66.94
2018-05-10T22:41:44.563Z,67.78
2018-05-10T22:44:11.359Z,67.11
2018-05-10T22:46:37.793Z,66.55
2018-05-10T22:49:04.398Z,66.77
2018-05-10T22:51:30.870Z,66.92
2018-05-10T22:53:57.469Z,67.02
2018-05-10T22:56:24.693Z,67.50
2018-05-10T22:58:51.384Z,67.53
2018-05-10T23:01:18.972Z,68.02
2018-05-10T23:03:45.460Z,68.14
2018-05-10T23:06:12.031Z,67.95
2018-05-10T23:08:38.446Z,68.22
2018-05-10T23:11:05.787Z,68.41
2018-05-10T23:13:33.095Z,69.05
2018-05-10T23:15:59.598Z,69.58
2018-05-10T23:18:26.067Z,68.98
2018-05-10T23:20:52.803Z,68.81
2018-05-10T23:23:26.428Z,69.30
2018-05-10T23:25:53.262Z,69.85
2018-05-10T23:28:19.737Z,69.55
2018-05-10T23:30:46.925Z,70.07
2018-05-10T23:33:13.516Z,70.48
2018-05-10T23:35:40.825Z,70.08
2018-05-10T23:38:08.247Z,70.71
2018-05-10T23:40:34.781Z,70.58
2018-05-10T23:43:01.225Z,70.86
2018-05-10T23:45:27.659Z,70.55
2018-05-10T23:47:54.062Z,70.54
2018-05-10T23:50:21.209Z,70.44
2018-05-10T23:52:47.662Z,70.64
2018-05-10T23:55:14.199Z,70.70
2018-05-10T23:57:40.635Z,71.19
